createdAt,value
2018-09-02T00:00:33.669Z,0
2018-09-02T00:01:14.209Z,0
2018-09-02T00:01:54.717Z,0
2018-09-02T00:02:35.239Z,0
2018-09-02T00:03:15.749Z,0
2018-09-02T00:03:56.267Z,0
2018-09-02T00:04:36.782Z,0
2018-09-02T00:05:17.288Z,0
2018-09-02T00:05:57.806Z,0
2018-09-02T00:06:38.332Z,0
2018-09-02T00:07:18.846Z,0
2018-09-02T00:07:59.363Z,0
2018-09-02T00:08:39.868Z,0
2018-09-02T00:09:20.384Z,0
2018-09-02T00:10:00.901Z,0
2018-09-02T00:10:41.413Z,0
2018-09-02T00:11:21.941Z,0
2018-09-02T00:12:02.460Z,0
2018-09-02T00:12:42.971Z,0
2018-09-02T00:13:23.513Z,0
2018-09-02T00:14:04.019Z,0
2018-09-02T00:14:44.543Z,0
2018-09-02T00:15:25.067Z,0
2018-09-02T00:16:05.578Z,0
2018-09-02T00:16:46.082Z,0
2018-09-02T00:17:26.592Z,0
2018-09-02T00:18:07.113Z,0
2018-09-02T00:18:47.651Z,0
2018-09-02T00:19:28.177Z,0
2018-09-02T00:20:08.692Z,0
2018-09-02T00:20:49.226Z,0
2018-09-02T00:21:29.738Z,0
2018-09-02T00:22:10.262Z,0
2018-09-02T00:22:50.789Z,0
2018-09-02T00:23:31.309Z,0
2018-09-02T00:24:11.825Z,0
2018-09-02T00:24:52.385Z,0
2018-09-02T00:25:32.892Z,0
2018-09-02T00:26:13.411Z,0
2018-09-02T00:26:53.931Z,0
2018-09-02T00:27:34.448Z,0
2018-09-02T00:28:14.978Z,0
2018-09-02T00:28:55.490Z,0
2018-09-02T00:29:36.193Z,0
2018-09-02T00:30:16.793Z,0
2018-09-02T00:30:57.226Z,0
2018-09-02T00:31:37.742Z,0
2018-09-02T00:32:18.260Z,0
2018-09-02T00:32:58.890Z,0
2018-09-02T00:33:39.313Z,0
2018-09-02T00:34:19.814Z,0
2018-09-02T00:35:00.359Z,0
2018-09-02T00:35:40.845Z,0
2018-09-02T00:36:21.415Z,0
2018-09-02T00:37:01.940Z,0
2018-09-02T00:37:42.459Z,0
2018-09-02T00:38:22.994Z,0
2018-09-02T00:39:03.514Z,0
2018-09-02T00:39:44.030Z,0
2018-09-02T00:40:24.571Z,0
2018-09-02T00:41:05.090Z,0
2018-09-02T00:41:45.628Z,0
2018-09-02T00:42:26.142Z,0
2018-09-02T00:43:06.670Z,0
2018-09-02T00:43:47.187Z,0
2018-09-02T00:44:27.722Z,0
2018-09-02T00:45:08.232Z,0
2018-09-02T00:45:48.756Z,0
2018-09-02T00:46:29.273Z,0
2018-09-02T00:47:09.797Z,0
2018-09-02T00:47:50.316Z,0
2018-09-02T00:48:30.846Z,0
2018-09-02T00:49:11.367Z,0
2018-09-02T00:49:51.889Z,0
2018-09-02T00:50:32.418Z,0
2018-09-02T00:51:12.946Z,0
2018-09-02T00:51:53.453Z,0
2018-09-02T00:52:33.978Z,0
2018-09-02T00:53:14.502Z,0
2018-09-02T00:53:55.016Z,0
2018-09-02T00:54:35.539Z,0
2018-09-02T00:55:16.316Z,0
2018-09-02T00:55:56.855Z,0
2018-09-02T00:56:37.374Z,0
2018-09-02T00:57:17.879Z,0
2018-09-02T00:57:58.402Z,0
2018-09-02T00:58:38.927Z,0
2018-09-02T00:59:19.444Z,0
2018-09-02T00:59:59.957Z,0
2018-09-02T01:00:40.475Z,0
2018-09-02T01:01:20.992Z,0
2018-09-02T01:02:01.506Z,0
2018-09-02T01:02:42.021Z,0
2018-09-02T01:03:22.551Z,0
2018-09-02T01:04:03.075Z,0
2018-09-02T01:04:43.600Z,0
2018-09-02T01:05:24.176Z,0
2018-09-02T01:06:04.689Z,0
2018-09-02T01:06:45.219Z,0
2018-09-02T01:07:25.742Z,0
2018-09-02T01:08:06.254Z,0
2018-09-02T01:08:46.772Z,0
2018-09-02T01:09:27.298Z,0
2018-09-02T01:10:07.814Z,0
2018-09-02T01:10:48.332Z,0
2018-09-02T01:11:28.874Z,0
2018-09-02T01:12:09.451Z,0
2018-09-02T01:12:49.967Z,0
2018-09-02T01:13:30.503Z,0
2018-09-02T01:14:11.022Z,0
2018-09-02T01:14:51.544Z,0
2018-09-02T01:15:32.068Z,0
2018-09-02T01:16:12.597Z,0
2018-09-02T01:16:53.113Z,0
2018-09-02T01:17:33.628Z,0
2018-09-02T01:18:14.169Z,0
2018-09-02T01:18:54.700Z,0
2018-09-02T01:19:35.241Z,0
2018-09-02T01:20:15.822Z,0
2018-09-02T01:20:56.310Z,0
2018-09-02T01:21:36.920Z,0
2018-09-02T01:22:17.449Z,0
2018-09-02T01:22:58.028Z,0
2018-09-02T01:23:38.505Z,0
2018-09-02T01:24:19.032Z,0
2018-09-02T01:24:59.543Z,0
2018-09-02T01:25:40.053Z,0
2018-09-02T01:26:20.674Z,0
2018-09-02T01:27:01.190Z,0
2018-09-02T01:27:41.711Z,0
2018-09-02T01:28:22.240Z,0
2018-09-02T01:29:02.759Z,0
2018-09-02T01:29:43.282Z,0
2018-09-02T01:30:23.794Z,0
2018-09-02T01:31:04.309Z,0
2018-09-02T01:31:44.873Z,0
2018-09-02T01:32:25.341Z,0
2018-09-02T01:33:06.044Z,0
2018-09-02T01:33:46.582Z,0
2018-09-02T01:34:27.108Z,0
2018-09-02T01:35:07.635Z,0
2018-09-02T01:35:48.151Z,0
2018-09-02T01:36:28.662Z,0
2018-09-02T01:37:09.189Z,0
2018-09-02T01:37:49.714Z,0
2018-09-02T01:38:30.228Z,0
2018-09-02T01:39:10.745Z,0
2018-09-02T01:39:51.258Z,0
2018-09-02T01:40:31.773Z,0
2018-09-02T01:41:12.289Z,0
2018-09-02T01:41:52.807Z,0
2018-09-02T01:42:33.316Z,0
2018-09-02T01:43:13.834Z,0
2018-09-02T01:43:54.361Z,0
2018-09-02T01:44:34.877Z,0
2018-09-02T01:45:15.398Z,0
2018-09-02T01:45:55.921Z,0
2018-09-02T01:46:36.439Z,0
2018-09-02T01:47:16.954Z,0
2018-09-02T01:47:57.470Z,0
2018-09-02T01:48:38.015Z,0
2018-09-02T01:49:18.530Z,0
2018-09-02T01:49:59.058Z,0
2018-09-02T01:50:39.567Z,0
2018-09-02T01:51:20.076Z,0
2018-09-02T01:52:00.593Z,0
2018-09-02T01:52:41.118Z,0
2018-09-02T01:53:21.644Z,0
2018-09-02T01:54:02.164Z,0
2018-09-02T01:54:42.806Z,0
2018-09-02T01:55:23.326Z,0
2018-09-02T01:56:03.848Z,0
2018-09-02T01:56:44.363Z,0
2018-09-02T01:57:24.884Z,0
2018-09-02T01:58:05.399Z,0
2018-09-02T01:58:45.918Z,0
2018-09-02T01:59:26.442Z,0
2018-09-02T02:00:06.974Z,0
2018-09-02T02:00:47.876Z,0
2018-09-02T02:01:28.408Z,0
2018-09-02T02:02:08.929Z,0
2018-09-02T02:02:49.442Z,0
2018-09-02T02:03:29.964Z,0
2018-09-02T02:04:10.486Z,0
2018-09-02T02:04:51.024Z,0
2018-09-02T02:05:31.536Z,0
2018-09-02T02:06:12.043Z,0
2018-09-02T02:06:52.559Z,0
2018-09-02T02:07:33.072Z,0
2018-09-02T02:08:13.700Z,0
2018-09-02T02:08:54.228Z,0
2018-09-02T02:09:34.746Z,0
2018-09-02T02:10:15.283Z,0
2018-09-02T02:10:55.810Z,0
2018-09-02T02:11:36.314Z,0
2018-09-02T02:12:16.820Z,0
2018-09-02T02:12:57.332Z,0
2018-09-02T02:13:37.837Z,0
2018-09-02T02:14:18.420Z,0
2018-09-02T02:14:58.937Z,0
2018-09-02T02:15:39.449Z,0
2018-09-02T02:16:19.982Z,0
2018-09-02T02:17:00.497Z,0
2018-09-02T02:17:41.022Z,0
2018-09-02T02:18:21.541Z,0
2018-09-02T02:19:02.062Z,0
2018-09-02T02:19:42.586Z,0
2018-09-02T02:20:23.108Z,0
2018-09-02T02:21:03.893Z,0
2018-09-02T02:21:44.416Z,0
2018-09-02T02:22:25.124Z,0
2018-09-02T02:23:05.648Z,0
2018-09-02T02:23:46.167Z,0
2018-09-02T02:24:26.695Z,0
2018-09-02T02:25:07.209Z,0
2018-09-02T02:25:47.735Z,0
2018-09-02T02:26:28.250Z,0
2018-09-02T02:27:08.770Z,0
2018-09-02T02:27:49.297Z,0
2018-09-02T02:28:29.831Z,0
2018-09-02T02:29:11.180Z,0
2018-09-02T02:31:08.865Z,0
2018-09-02T02:31:49.377Z,0
2018-09-02T02:32:29.893Z,0
2018-09-02T02:33:10.410Z,0
2018-09-02T02:33:50.939Z,0
2018-09-02T02:36:08.886Z,0
2018-09-02T02:36:49.404Z,0
2018-09-02T02:37:29.926Z,0
2018-09-02T02:38:10.448Z,0
2018-09-02T02:38:50.968Z,0
2018-09-02T02:39:31.561Z,0
2018-09-02T02:40:12.177Z,0
2018-09-02T02:40:52.628Z,0
2018-09-02T02:41:33.142Z,0
2018-09-02T02:42:13.659Z,0
2018-09-02T02:42:54.182Z,0
2018-09-02T02:43:34.693Z,0
2018-09-02T02:44:15.213Z,0
2018-09-02T02:44:55.735Z,0
2018-09-02T02:45:36.261Z,0
2018-09-02T02:46:16.818Z,0
2018-09-02T02:46:57.330Z,0
2018-09-02T02:47:37.845Z,0
2018-09-02T02:48:18.356Z,0
2018-09-02T02:48:58.865Z,0
2018-09-02T02:49:39.393Z,0
2018-09-02T02:50:19.917Z,0
2018-09-02T02:51:00.433Z,0
2018-09-02T02:51:40.946Z,0
2018-09-02T02:52:21.459Z,0
2018-09-02T02:53:01.970Z,0
2018-09-02T02:53:42.506Z,0
2018-09-02T02:56:11.133Z,0
2018-09-02T02:56:51.676Z,0
2018-09-02T02:57:32.204Z,0
2018-09-02T02:58:12.791Z,0
2018-09-02T02:58:53.324Z,0
2018-09-02T02:59:33.868Z,0
2018-09-02T03:00:14.388Z,0
2018-09-02T03:00:54.922Z,0
2018-09-02T03:01:35.427Z,0
2018-09-02T03:02:15.934Z,0
2018-09-02T03:02:56.451Z,0
2018-09-02T03:03:36.966Z,0
2018-09-02T03:04:17.489Z,0
2018-09-02T03:04:58.002Z,0
2018-09-02T03:05:38.517Z,0
2018-09-02T03:06:19.035Z,0
2018-09-02T03:06:59.546Z,0
2018-09-02T03:07:40.052Z,0
2018-09-02T03:08:20.575Z,0
2018-09-02T03:09:01.092Z,0
2018-09-02T03:09:41.618Z,0
2018-09-02T03:10:22.127Z,0
2018-09-02T03:11:02.668Z,0
2018-09-02T03:11:43.183Z,0
2018-09-02T03:12:23.704Z,0
2018-09-02T03:13:04.227Z,0
2018-09-02T03:13:44.752Z,0
2018-09-02T03:14:25.276Z,0
2018-09-02T03:15:05.792Z,0
2018-09-02T03:15:46.342Z,0
2018-09-02T03:16:26.858Z,0
2018-09-02T03:17:07.379Z,0
2018-09-02T03:17:47.894Z,0
2018-09-02T03:18:28.423Z,0
2018-09-02T03:20:46.334Z,0
2018-09-02T03:21:26.844Z,0
2018-09-02T03:22:07.360Z,0
2018-09-02T03:22:47.892Z,0
2018-09-02T03:23:28.405Z,0
2018-09-02T03:24:08.945Z,0
2018-09-02T03:24:49.460Z,0
2018-09-02T03:25:29.955Z,0
2018-09-02T03:26:10.643Z,0
2018-09-02T03:26:50.969Z,0
2018-09-02T03:27:31.476Z,0
2018-09-02T03:28:11.986Z,0
2018-09-02T03:28:52.510Z,0
2018-09-02T03:29:33.025Z,0
2018-09-02T03:30:13.541Z,0
2018-09-02T03:30:54.072Z,0
2018-09-02T03:31:34.596Z,0
2018-09-02T03:32:15.127Z,0
2018-09-02T03:32:55.646Z,0
2018-09-02T03:33:36.195Z,0
2018-09-02T03:34:16.800Z,0
2018-09-02T03:34:57.329Z,0
2018-09-02T03:35:37.912Z,0
2018-09-02T03:36:18.398Z,0
2018-09-02T03:36:58.905Z,0
2018-09-02T03:37:39.418Z,0
2018-09-02T03:38:19.939Z,0
2018-09-02T03:39:00.454Z,0
2018-09-02T03:39:40.966Z,0
2018-09-02T03:40:21.722Z,0
2018-09-02T03:41:02.230Z,0
2018-09-02T03:41:42.753Z,0
2018-09-02T03:42:23.276Z,0
2018-09-02T03:43:03.789Z,0
2018-09-02T03:43:44.305Z,0
2018-09-02T03:44:24.827Z,0
2018-09-02T03:45:05.349Z,0
2018-09-02T03:45:45.868Z,0
2018-09-02T03:46:26.386Z,0
2018-09-02T03:47:06.900Z,0
2018-09-02T03:47:47.415Z,0
2018-09-02T03:48:27.954Z,0
2018-09-02T03:49:08.467Z,0
2018-09-02T03:49:49.160Z,0
2018-09-02T03:50:29.629Z,0
2018-09-02T03:51:10.158Z,0
2018-09-02T03:51:50.676Z,0
2018-09-02T03:52:31.179Z,0
2018-09-02T03:53:11.706Z,0
2018-09-02T03:53:52.226Z,0
2018-09-02T03:54:33.002Z,0
2018-09-02T03:55:13.517Z,0
2018-09-02T03:57:46.976Z,0
2018-09-02T03:58:27.497Z,0
2018-09-02T03:59:08.015Z,0
2018-09-02T03:59:48.551Z,0
2018-09-02T04:00:29.063Z,0
2018-09-02T04:01:09.577Z,0
2018-09-02T04:01:50.099Z,0
2018-09-02T04:02:30.616Z,0
2018-09-02T04:03:11.142Z,0
2018-09-02T04:03:51.660Z,0
2018-09-02T04:04:32.172Z,0
2018-09-02T04:05:12.694Z,0
2018-09-02T04:05:53.215Z,0
2018-09-02T04:06:33.738Z,0
2018-09-02T04:07:14.257Z,0
2018-09-02T04:07:54.781Z,0
2018-09-02T04:08:35.310Z,0
2018-09-02T04:09:15.837Z,0
2018-09-02T04:09:56.355Z,0
2018-09-02T04:10:36.881Z,0
2018-09-02T04:11:17.489Z,0
2018-09-02T04:11:57.920Z,0
2018-09-02T04:12:38.429Z,0
2018-09-02T04:13:19.034Z,0
2018-09-02T04:13:59.543Z,0
2018-09-02T04:14:40.057Z,0
2018-09-02T04:15:20.581Z,0
2018-09-02T04:16:01.096Z,0
2018-09-02T04:16:41.611Z,0
2018-09-02T04:17:22.124Z,0
2018-09-02T04:18:02.647Z,0
2018-09-02T04:18:43.167Z,0
2018-09-02T04:19:23.682Z,0
2018-09-02T04:21:52.459Z,4
2018-09-02T04:22:32.987Z,4
2018-09-02T04:23:13.507Z,0
2018-09-02T04:23:54.045Z,4
2018-09-02T04:24:34.549Z,4
2018-09-02T04:25:15.069Z,4
2018-09-02T04:25:55.699Z,4
2018-09-02T04:26:36.258Z,8
2018-09-02T04:27:16.779Z,4
2018-09-02T04:27:57.300Z,8
2018-09-02T04:28:37.816Z,8
2018-09-02T04:29:18.332Z,12
2018-09-02T04:29:58.842Z,12
2018-09-02T04:30:39.368Z,12
2018-09-02T04:31:19.885Z,12
2018-09-02T04:32:00.395Z,16
2018-09-02T04:32:40.908Z,16
2018-09-02T04:33:21.467Z,16
2018-09-02T04:34:02.746Z,16
2018-09-02T04:34:43.256Z,24
2018-09-02T04:35:23.779Z,24
2018-09-02T04:36:04.284Z,24
2018-09-02T04:36:44.815Z,24
2018-09-02T04:37:25.333Z,32
2018-09-02T04:38:05.846Z,32
2018-09-02T04:38:46.367Z,32
2018-09-02T04:39:26.891Z,36
2018-09-02T04:40:07.404Z,36
2018-09-02T04:40:47.926Z,40
2018-09-02T04:41:28.460Z,40
2018-09-02T04:42:08.987Z,40
2018-09-02T04:42:49.516Z,44
2018-09-02T04:43:30.030Z,44
2018-09-02T04:44:10.548Z,44
2018-09-02T04:44:51.075Z,52
2018-09-02T04:45:31.590Z,52
2018-09-02T04:46:12.107Z,56
2018-09-02T04:46:52.672Z,56
2018-09-02T04:47:33.189Z,60
2018-09-02T04:48:13.715Z,60
2018-09-02T04:48:54.257Z,68
2018-09-02T04:49:34.775Z,72
2018-09-02T04:50:15.296Z,72
2018-09-02T04:50:55.815Z,76
2018-09-02T04:51:36.339Z,76
2018-09-02T04:52:16.852Z,76
2018-09-02T04:52:57.359Z,80
2018-09-02T04:53:37.886Z,76
2018-09-02T04:54:18.462Z,80
2018-09-02T04:54:58.919Z,80
2018-09-02T04:55:39.437Z,84
2018-09-02T04:56:19.958Z,88
2018-09-02T04:57:00.488Z,88
2018-09-02T04:57:41.016Z,92
2018-09-02T04:58:21.532Z,96
2018-09-02T04:59:02.057Z,104
2018-09-02T04:59:42.567Z,104
2018-09-02T05:00:23.344Z,108
2018-09-02T05:01:03.613Z,112
2018-09-02T05:01:44.863Z,116
2018-09-02T05:02:24.651Z,124
2018-09-02T05:03:05.168Z,136
2018-09-02T05:03:45.681Z,140
2018-09-02T05:04:26.206Z,156
2018-09-02T05:05:06.716Z,168
2018-09-02T05:05:47.222Z,180
2018-09-02T05:06:27.742Z,192
2018-09-02T05:07:08.253Z,204
2018-09-02T05:07:48.776Z,224
2018-09-02T05:08:29.294Z,240
2018-09-02T05:09:09.810Z,248
2018-09-02T05:09:50.321Z,256
2018-09-02T05:10:30.834Z,260
2018-09-02T05:11:11.358Z,264
2018-09-02T05:11:51.881Z,264
2018-09-02T05:12:32.407Z,272
2018-09-02T05:13:12.925Z,276
2018-09-02T05:13:53.441Z,284
2018-09-02T05:14:33.973Z,292
2018-09-02T05:15:14.480Z,300
2018-09-02T05:15:54.993Z,304
2018-09-02T05:16:35.512Z,308
2018-09-02T05:17:16.041Z,308
2018-09-02T05:17:56.538Z,308
2018-09-02T05:18:37.074Z,312
2018-09-02T05:19:17.610Z,312
2018-09-02T05:19:58.120Z,320
2018-09-02T05:20:38.645Z,328
2018-09-02T05:21:19.153Z,332
2018-09-02T05:21:59.665Z,344
2018-09-02T05:22:40.365Z,352
2018-09-02T05:23:20.885Z,360
2018-09-02T05:24:01.400Z,368
2018-09-02T05:24:41.928Z,368
2018-09-02T05:25:22.437Z,372
2018-09-02T05:26:02.955Z,380
2018-09-02T05:26:43.468Z,380
2018-09-02T05:27:23.984Z,388
2018-09-02T05:28:04.496Z,384
2018-09-02T05:28:45.021Z,388
2018-09-02T05:29:25.629Z,388
2018-09-02T05:30:06.124Z,396
2018-09-02T05:30:46.629Z,400
2018-09-02T05:31:27.145Z,408
2018-09-02T05:32:07.674Z,416
2018-09-02T05:32:48.192Z,424
2018-09-02T05:33:28.705Z,432
2018-09-02T05:34:09.236Z,448
2018-09-02T05:34:49.753Z,468
2018-09-02T05:35:30.259Z,488
2018-09-02T05:36:10.772Z,508
2018-09-02T05:36:51.331Z,532
2018-09-02T05:37:31.813Z,552
2018-09-02T05:38:12.328Z,572
2018-09-02T05:38:52.850Z,596
2018-09-02T05:39:33.373Z,612
2018-09-02T05:40:13.893Z,624
2018-09-02T05:40:54.419Z,632
2018-09-02T05:41:34.940Z,640
2018-09-02T05:42:15.518Z,656
2018-09-02T05:42:55.973Z,688
2018-09-02T05:43:36.480Z,744
2018-09-02T05:44:16.994Z,836
2018-09-02T05:44:57.515Z,964
2018-09-02T05:45:38.028Z,1092
2018-09-02T05:46:18.548Z,1196
2018-09-02T05:46:59.067Z,1276
2018-09-02T05:47:39.580Z,1324
2018-09-02T05:48:20.097Z,1360
2018-09-02T05:49:00.625Z,1388
2018-09-02T05:49:41.144Z,1424
2018-09-02T05:50:21.655Z,1464
2018-09-02T05:51:02.178Z,1492
2018-09-02T05:51:42.695Z,1520
2018-09-02T05:52:23.216Z,1524
2018-09-02T05:53:03.757Z,1480
2018-09-02T05:53:44.279Z,1384
2018-09-02T05:54:24.805Z,1300
2018-09-02T05:55:05.318Z,1228
2018-09-02T05:55:45.837Z,1152
2018-09-02T05:56:26.359Z,1088
2018-09-02T05:57:06.877Z,1012
2018-09-02T05:57:47.392Z,940
2018-09-02T05:58:27.915Z,876
2018-09-02T05:59:08.439Z,824
2018-09-02T05:59:48.939Z,776
2018-09-02T06:00:29.456Z,732
2018-09-02T06:01:09.962Z,684
2018-09-02T06:01:50.484Z,644
2018-09-02T06:02:31.034Z,604
2018-09-02T06:03:11.554Z,584
2018-09-02T06:03:52.081Z,580
2018-09-02T06:04:32.593Z,592
2018-09-02T06:05:13.123Z,640
2018-09-02T06:05:53.655Z,696
2018-09-02T06:06:34.205Z,740
2018-09-02T06:07:14.722Z,780
2018-09-02T06:07:55.238Z,804
2018-09-02T06:08:35.753Z,788
2018-09-02T06:09:16.262Z,776
2018-09-02T06:09:56.782Z,796
2018-09-02T06:10:37.289Z,848
2018-09-02T06:11:17.815Z,916
2018-09-02T06:11:58.330Z,976
2018-09-02T06:12:38.855Z,1016
2018-09-02T06:13:19.362Z,1044
2018-09-02T06:13:59.887Z,1040
2018-09-02T06:14:40.390Z,1020
2018-09-02T06:15:20.927Z,1008
2018-09-02T06:16:01.454Z,1000
2018-09-02T06:16:41.967Z,972
2018-09-02T06:17:22.536Z,940
2018-09-02T06:18:03.004Z,928
2018-09-02T06:18:43.530Z,952
2018-09-02T06:19:24.046Z,976
2018-09-02T06:20:04.575Z,988
2018-09-02T06:20:45.125Z,992
2018-09-02T06:21:25.662Z,1012
2018-09-02T06:22:06.175Z,1056
2018-09-02T06:22:46.690Z,1112
2018-09-02T06:23:27.205Z,1176
2018-09-02T06:24:07.736Z,1224
2018-09-02T06:24:48.291Z,1232
2018-09-02T06:25:28.820Z,1188
2018-09-02T06:26:09.335Z,1116
2018-09-02T06:26:49.890Z,1048
2018-09-02T06:27:30.579Z,1008
2018-09-02T06:28:11.065Z,984
2018-09-02T06:28:51.591Z,984
2018-09-02T06:29:32.105Z,1000
2018-09-02T06:30:12.745Z,996
2018-09-02T06:30:53.165Z,968
2018-09-02T06:31:33.669Z,940
2018-09-02T06:32:14.181Z,916
2018-09-02T06:32:54.853Z,892
2018-09-02T06:33:35.211Z,872
2018-09-02T06:34:15.728Z,868
2018-09-02T06:34:56.272Z,860
2018-09-02T06:35:36.875Z,864
2018-09-02T06:36:17.325Z,876
2018-09-02T06:36:57.822Z,904
2018-09-02T06:37:38.334Z,928
2018-09-02T06:38:18.848Z,956
2018-09-02T06:38:59.366Z,984
2018-09-02T06:39:40.037Z,1000
2018-09-02T06:40:20.388Z,1012
2018-09-02T06:41:00.909Z,1036
2018-09-02T06:41:41.432Z,1068
2018-09-02T06:42:21.950Z,1112
2018-09-02T06:43:02.461Z,1168
2018-09-02T06:43:42.994Z,1244
2018-09-02T06:44:23.514Z,1332
2018-09-02T06:45:04.035Z,1368
2018-09-02T06:45:44.589Z,1376
2018-09-02T06:46:25.067Z,1368
2018-09-02T06:47:05.579Z,1364
2018-09-02T06:47:46.095Z,1360
2018-09-02T06:48:26.625Z,1344
2018-09-02T06:49:07.901Z,1332
2018-09-02T06:49:48.469Z,1328
2018-09-02T06:50:28.991Z,1344
2018-09-02T06:51:09.508Z,1388
2018-09-02T06:51:50.092Z,1452
2018-09-02T06:52:30.540Z,1492
2018-09-02T06:53:11.058Z,1508
2018-09-02T06:53:51.591Z,1496
2018-09-02T06:54:32.122Z,1488
2018-09-02T06:55:12.634Z,1492
2018-09-02T06:55:53.163Z,1520
2018-09-02T06:56:33.668Z,1548
2018-09-02T06:57:14.191Z,1532
2018-09-02T06:57:54.699Z,1468
2018-09-02T06:58:35.267Z,1420
2018-09-02T06:59:15.749Z,1404
2018-09-02T06:59:56.264Z,1416
2018-09-02T07:00:36.779Z,1424
2018-09-02T07:01:17.303Z,1420
2018-09-02T07:01:57.833Z,1432
2018-09-02T07:02:38.502Z,1468
2018-09-02T07:03:19.019Z,1516
2018-09-02T07:03:59.539Z,1552
2018-09-02T07:04:40.056Z,1596
2018-09-02T07:05:20.590Z,1668
2018-09-02T07:06:01.091Z,1772
2018-09-02T07:06:41.659Z,1900
2018-09-02T07:07:22.191Z,1996
2018-09-02T07:08:02.640Z,2052
2018-09-02T07:08:43.152Z,2076
2018-09-02T07:09:23.685Z,2112
2018-09-02T07:10:04.202Z,2180
2018-09-02T07:10:44.725Z,2252
2018-09-02T07:11:25.239Z,2304
2018-09-02T07:12:05.763Z,2368
2018-09-02T07:12:46.297Z,2440
2018-09-02T07:13:26.820Z,2492
2018-09-02T07:14:07.342Z,2500
2018-09-02T07:14:47.862Z,2472
2018-09-02T07:15:28.382Z,2424
2018-09-02T07:16:08.928Z,2392
2018-09-02T07:16:49.470Z,2400
2018-09-02T07:17:29.977Z,2428
2018-09-02T07:18:10.494Z,2488
2018-09-02T07:18:51.025Z,2512
2018-09-02T07:19:31.626Z,2492
2018-09-02T07:20:12.265Z,2444
2018-09-02T07:20:52.662Z,2420
2018-09-02T07:21:33.199Z,2428
2018-09-02T07:22:13.711Z,2444
2018-09-02T07:22:54.242Z,2476
2018-09-02T07:23:35.130Z,2532
2018-09-02T07:24:15.390Z,2596
2018-09-02T07:24:55.910Z,2652
2018-09-02T07:25:36.427Z,2700
2018-09-02T07:26:16.948Z,2724
2018-09-02T07:26:57.463Z,2732
2018-09-02T07:27:37.996Z,2732
2018-09-02T07:28:18.500Z,2712
2018-09-02T07:28:59.042Z,2672
2018-09-02T07:29:39.550Z,2616
2018-09-02T07:30:20.095Z,2580
2018-09-02T07:31:00.615Z,2580
2018-09-02T07:31:41.139Z,2648
2018-09-02T07:32:21.686Z,2772
2018-09-02T07:33:02.210Z,2884
2018-09-02T07:33:42.749Z,2960
2018-09-02T07:34:23.268Z,2984
2018-09-02T07:35:03.780Z,2996
2018-09-02T07:35:44.286Z,3000
2018-09-02T07:36:24.805Z,3016
2018-09-02T07:37:05.330Z,3012
2018-09-02T07:37:45.881Z,2964
2018-09-02T07:38:26.451Z,2920
2018-09-02T07:39:06.977Z,2900
2018-09-02T07:39:47.501Z,2908
2018-09-02T07:40:28.023Z,2928
2018-09-02T07:41:08.541Z,2980
2018-09-02T07:41:49.070Z,3020
2018-09-02T07:42:29.585Z,3036
2018-09-02T07:43:10.102Z,3008
2018-09-02T07:43:51.039Z,2956
2018-09-02T07:44:31.506Z,2948
2018-09-02T07:45:12.066Z,2992
2018-09-02T07:45:52.595Z,3052
2018-09-02T07:46:33.110Z,3120
2018-09-02T07:48:51.485Z,3076
2018-09-02T07:49:32.003Z,3056
2018-09-02T07:50:12.536Z,3036
2018-09-02T07:50:53.047Z,3032
2018-09-02T07:51:33.562Z,3068
2018-09-02T07:52:14.092Z,3112
2018-09-02T07:52:54.611Z,3180
2018-09-02T07:53:35.130Z,3244
2018-09-02T07:54:15.667Z,3272
2018-09-02T07:54:56.203Z,3212
2018-09-02T07:55:36.720Z,3068
2018-09-02T07:56:17.286Z,2924
2018-09-02T07:56:57.815Z,2816
2018-09-02T07:57:38.336Z,2764
2018-09-02T07:58:18.861Z,2732
2018-09-02T07:58:59.385Z,2700
2018-09-02T07:59:39.898Z,2660
2018-09-02T08:00:20.429Z,2624
2018-09-02T08:01:00.952Z,2612
2018-09-02T08:01:41.466Z,2608
2018-09-02T08:02:21.986Z,2612
2018-09-02T08:03:02.513Z,2580
2018-09-02T08:03:43.175Z,2548
2018-09-02T08:04:23.693Z,2516
2018-09-02T08:05:04.220Z,2480
2018-09-02T08:05:44.741Z,2464
2018-09-02T08:06:25.272Z,2424
2018-09-02T08:07:05.791Z,2384
2018-09-02T08:07:46.326Z,2340
2018-09-02T08:08:26.829Z,2268
2018-09-02T08:09:07.366Z,2216
2018-09-02T08:09:48.374Z,2192
2018-09-02T08:10:28.439Z,2184
2018-09-02T08:11:08.976Z,2192
2018-09-02T08:11:49.488Z,2212
2018-09-02T08:12:30.091Z,2244
2018-09-02T08:13:10.540Z,2296
2018-09-02T08:13:51.051Z,2364
2018-09-02T08:14:31.579Z,2424
2018-09-02T08:15:12.091Z,2496
2018-09-02T08:15:52.635Z,2568
2018-09-02T08:16:33.176Z,2628
2018-09-02T08:17:13.692Z,2660
2018-09-02T08:17:54.215Z,2680
2018-09-02T08:18:34.745Z,2692
2018-09-02T08:19:15.274Z,2716
2018-09-02T08:19:55.831Z,2732
2018-09-02T08:20:36.320Z,2744
2018-09-02T08:21:16.824Z,2752
2018-09-02T08:21:57.411Z,2776
2018-09-02T08:22:37.931Z,2824
2018-09-02T08:23:18.447Z,2892
2018-09-02T08:23:58.972Z,3000
2018-09-02T08:24:39.495Z,3096
2018-09-02T08:25:20.017Z,3180
2018-09-02T08:26:00.539Z,3224
2018-09-02T08:26:41.105Z,3276
2018-09-02T08:27:21.607Z,3320
2018-09-02T08:28:02.214Z,3356
2018-09-02T08:28:42.749Z,3436
2018-09-02T08:29:23.265Z,3496
2018-09-02T08:30:03.790Z,3580
2018-09-02T08:30:44.301Z,3668
2018-09-02T08:31:24.805Z,3772
2018-09-02T08:32:05.324Z,3888
2018-09-02T08:32:46.020Z,3984
2018-09-02T08:33:26.567Z,4024
2018-09-02T08:34:07.270Z,4056
2018-09-02T08:34:47.626Z,4012
2018-09-02T08:35:28.163Z,3996
2018-09-02T08:36:08.680Z,4024
2018-09-02T08:36:49.195Z,4064
2018-09-02T08:37:29.716Z,4072
2018-09-02T08:38:10.227Z,4024
2018-09-02T08:38:50.882Z,3948
2018-09-02T08:39:31.266Z,3796
2018-09-02T08:40:11.805Z,3600
2018-09-02T08:40:52.313Z,3404
2018-09-02T08:41:32.837Z,3216
2018-09-02T08:42:13.354Z,3096
2018-09-02T08:42:53.869Z,2972
2018-09-02T08:43:34.380Z,2840
2018-09-02T08:44:14.947Z,2752
2018-09-02T08:44:55.452Z,2688
2018-09-02T08:45:35.958Z,2628
2018-09-02T08:46:16.477Z,2572
2018-09-02T08:46:57.687Z,2524
2018-09-02T08:47:38.238Z,2512
2018-09-02T08:48:18.773Z,2548
2018-09-02T08:48:59.298Z,2640
2018-09-02T08:49:39.820Z,2728
2018-09-02T08:50:20.368Z,2804
2018-09-02T08:51:00.898Z,2860
2018-09-02T08:51:41.412Z,2908
2018-09-02T08:52:21.948Z,2940
2018-09-02T08:53:02.697Z,3016
2018-09-02T08:53:43.208Z,3056
2018-09-02T08:54:23.735Z,3044
2018-09-02T08:55:04.260Z,3048
2018-09-02T08:55:44.781Z,3064
2018-09-02T08:56:25.301Z,3080
2018-09-02T08:57:05.832Z,3092
2018-09-02T08:57:46.355Z,3112
2018-09-02T08:58:26.973Z,3116
2018-09-02T08:59:07.489Z,3096
2018-09-02T08:59:48.078Z,3052
2018-09-02T09:00:28.604Z,3008
2018-09-02T09:01:09.125Z,2956
2018-09-02T09:01:49.683Z,2920
2018-09-02T09:02:30.179Z,2916
2018-09-02T09:03:10.713Z,2956
2018-09-02T09:03:51.230Z,3016
2018-09-02T09:04:31.771Z,3096
2018-09-02T09:05:12.285Z,3204
2018-09-02T09:05:52.819Z,3292
2018-09-02T09:06:33.339Z,3360
2018-09-02T09:07:13.915Z,3400
2018-09-02T09:07:54.663Z,3400
2018-09-02T09:08:35.053Z,3372
2018-09-02T09:09:15.693Z,3320
2018-09-02T09:09:56.005Z,3260
2018-09-02T09:10:36.521Z,3176
2018-09-02T09:11:17.033Z,3108
2018-09-02T09:11:57.548Z,3080
2018-09-02T09:12:38.083Z,3124
2018-09-02T09:13:18.609Z,3208
2018-09-02T09:13:59.183Z,3368
2018-09-02T09:14:39.682Z,3564
2018-09-02T09:15:20.242Z,3800
2018-09-02T09:16:00.769Z,4056
2018-09-02T09:16:41.381Z,4360
2018-09-02T09:17:21.821Z,4612
2018-09-02T09:18:02.327Z,4740
2018-09-02T09:18:42.849Z,4752
2018-09-02T09:19:23.374Z,4696
2018-09-02T09:20:03.888Z,4580
2018-09-02T09:20:44.424Z,4380
2018-09-02T09:21:24.965Z,4216
2018-09-02T09:22:05.643Z,4172
2018-09-02T09:22:46.159Z,4164
2018-09-02T09:23:26.670Z,4164
2018-09-02T09:24:07.323Z,4144
2018-09-02T09:24:47.818Z,4124
2018-09-02T09:25:28.408Z,4116
2018-09-02T09:26:08.900Z,4092
2018-09-02T09:26:49.409Z,3992
2018-09-02T09:27:29.946Z,3836
2018-09-02T09:28:10.506Z,3676
2018-09-02T09:28:51.097Z,3596
2018-09-02T09:29:31.616Z,3584
2018-09-02T09:30:12.139Z,3640
2018-09-02T09:30:52.666Z,3752
2018-09-02T09:31:33.183Z,3844
2018-09-02T09:32:13.764Z,3912
2018-09-02T09:32:54.235Z,3956
2018-09-02T09:33:34.764Z,3988
2018-09-02T09:34:15.277Z,3992
2018-09-02T09:34:55.811Z,4004
2018-09-02T09:35:36.339Z,4020
2018-09-02T09:36:16.857Z,4056
2018-09-02T09:36:57.376Z,4076
2018-09-02T09:37:37.971Z,4012
2018-09-02T09:38:18.502Z,3924
2018-09-02T09:38:59.032Z,3904
2018-09-02T09:39:39.562Z,3928
2018-09-02T09:40:20.092Z,4020
2018-09-02T09:41:00.617Z,4176
2018-09-02T09:41:41.150Z,4304